createdAt,value
2022-08-25T00:01:44.215Z,24.60
2022-08-25T00:04:35.176Z,24.50
2022-08-25T00:07:23.112Z,24.50
2022-08-25T00:10:11.446Z,24.50
2022-08-25T00:12:57.924Z,24.40
2022-08-25T00:15:46.708Z,24.40
2022-08-25T00:18:33.512Z,24.40
2022-08-25T00:21:20.461Z,24.30
2022-08-25T00:24:06.940Z,24.20
2022-08-25T00:26:56.889Z,24.20
2022-08-25T00:29:43.515Z,24.20
2022-08-25T00:32:30.143Z,24.10
2022-08-25T00:35:16.988Z,24.10
2022-08-25T00:38:04.207Z,24.00
2022-08-25T00:41:05.870Z,24.00
2022-08-25T00:43:57.471Z,24.00
2022-08-25T00:46:47.932Z,24.00
2022-08-25T00:49:39.989Z,23.90
2022-08-25T00:52:30.026Z,23.90
2022-08-25T00:55:19.921Z,23.90
2022-08-25T00:58:11.633Z,23.90
2022-08-25T01:01:00.509Z,23.80
2022-08-25T01:03:47.256Z,23.70
2022-08-25T01:06:37.578Z,23.60
2022-08-25T01:09:24.173Z,23.60
2022-08-25T01:12:10.839Z,23.50
2022-08-25T01:14:58.721Z,23.50
2022-08-25T01:17:50.841Z,23.50
2022-08-25T01:20:37.392Z,23.50
2022-08-25T01:23:25.984Z,23.40
2022-08-25T01:26:15.312Z,23.30
2022-08-25T01:29:25.520Z,23.30
2022-08-25T01:32:14.942Z,23.30
2022-08-25T01:35:01.755Z,23.20
2022-08-25T01:37:48.717Z,23.20
2022-08-25T01:40:36.659Z,23.20
2022-08-25T01:43:32.094Z,23.20
2022-08-25T01:46:18.820Z,23.20
2022-08-25T01:49:06.920Z,23.10
2022-08-25T01:51:57.425Z,23.10
2022-08-25T01:54:44.349Z,23.00
2022-08-25T01:57:32.559Z,23.00
2022-08-25T02:00:21.436Z,23.00
2022-08-25T02:03:17.491Z,23.00
2022-08-25T02:06:06.142Z,22.90
2022-08-25T02:08:53.499Z,22.90
2022-08-25T02:11:42.133Z,22.80
2022-08-25T02:14:29.713Z,22.80
2022-08-25T02:17:17.295Z,22.80
2022-08-25T02:20:05.184Z,22.80
2022-08-25T02:22:56.591Z,22.70
2022-08-25T02:25:44.286Z,22.60
2022-08-25T02:28:30.692Z,22.60
2022-08-25T02:31:19.604Z,22.50
2022-08-25T02:34:07.014Z,22.40
2022-08-25T02:36:53.795Z,22.40
2022-08-25T02:39:40.137Z,22.40
2022-08-25T02:42:26.531Z,22.40
2022-08-25T02:45:13.044Z,22.30
2022-08-25T02:48:00.735Z,22.20
2022-08-25T02:50:48.817Z,22.20
2022-08-25T02:53:36.442Z,22.20
2022-08-25T02:56:22.983Z,22.20
2022-08-25T02:59:09.566Z,22.10
2022-08-25T03:01:56.729Z,22.00
2022-08-25T03:04:44.756Z,21.90
2022-08-25T03:07:31.461Z,21.90
2022-08-25T03:10:22.359Z,21.90
2022-08-25T03:13:08.782Z,21.80
2022-08-25T03:15:56.167Z,21.80
2022-08-25T03:18:43.688Z,21.80
2022-08-25T03:21:32.838Z,21.80
2022-08-25T03:24:19.297Z,21.80
2022-08-25T03:27:05.457Z,21.80
2022-08-25T03:29:52.236Z,21.80
2022-08-25T03:32:39.688Z,21.80
2022-08-25T03:35:26.416Z,21.70
2022-08-25T03:38:14.046Z,21.70
2022-08-25T03:41:00.857Z,21.70
2022-08-25T03:43:48.692Z,21.70
2022-08-25T03:46:38.979Z,21.70
2022-08-25T03:49:25.507Z,21.70
2022-08-25T03:52:12.133Z,21.60
2022-08-25T03:54:59.804Z,21.60
2022-08-25T03:57:46.473Z,21.50
2022-08-25T04:00:32.908Z,21.50
2022-08-25T04:03:20.024Z,21.50
2022-08-25T04:06:08.767Z,21.50
2022-08-25T04:08:55.331Z,21.50
2022-08-25T04:11:43.123Z,21.40
2022-08-25T04:14:31.222Z,21.40
2022-08-25T04:17:17.801Z,21.40
2022-08-25T04:20:05.396Z,21.40
2022-08-25T04:22:51.745Z,21.40
2022-08-25T04:25:43.037Z,21.30
2022-08-25T04:28:31.425Z,21.30
2022-08-25T04:31:19.466Z,21.40
2022-08-25T04:34:13.477Z,21.30
2022-08-25T04:37:13.910Z,21.30
2022-08-25T04:40:00.183Z,21.30
2022-08-25T04:42:48.065Z,21.30
2022-08-25T04:45:39.692Z,21.30
2022-08-25T04:48:26.890Z,21.20
2022-08-25T04:51:15.662Z,21.20
2022-08-25T04:54:04.972Z,21.20
2022-08-25T04:56:54.333Z,21.20
2022-08-25T04:59:44.812Z,21.20
2022-08-25T05:02:32.761Z,21.20
2022-08-25T05:05:19.390Z,21.20
2022-08-25T05:08:07.094Z,21.20
2022-08-25T05:10:54.652Z,21.20
2022-08-25T05:13:42.544Z,21.20
2022-08-25T05:16:30.049Z,21.20
2022-08-25T05:19:18.044Z,21.20
2022-08-25T05:22:04.891Z,21.20
2022-08-25T05:24:51.657Z,21.20
2022-08-25T05:27:38.036Z,21.20
2022-08-25T05:30:24.494Z,21.20
2022-08-25T05:33:11.840Z,21.30
2022-08-25T05:35:59.578Z,21.30
2022-08-25T05:38:46.208Z,21.20
2022-08-25T05:41:33.519Z,21.30
2022-08-25T05:44:21.328Z,21.30
2022-08-25T05:47:08.513Z,21.40
2022-08-25T05:49:55.063Z,21.40
2022-08-25T05:52:44.320Z,21.40
2022-08-25T05:55:30.749Z,21.50
2022-08-25T05:58:17.302Z,21.60
2022-08-25T06:01:24.083Z,21.60
2022-08-25T06:04:10.181Z,21.70
2022-08-25T06:06:56.638Z,21.70
2022-08-25T06:09:46.012Z,21.60
2022-08-25T06:12:36.092Z,21.70
2022-08-25T06:15:24.823Z,21.90
2022-08-25T06:18:11.201Z,22.00
2022-08-25T06:20:57.603Z,22.00
2022-08-25T06:23:44.457Z,22.00
2022-08-25T06:26:32.429Z,22.10
2022-08-25T06:29:19.621Z,22.20
2022-08-25T06:32:07.081Z,22.20
2022-08-25T06:34:53.712Z,22.30
2022-08-25T06:37:41.863Z,22.40
2022-08-25T06:40:28.846Z,22.40
2022-08-25T06:43:17.294Z,22.50
2022-08-25T06:46:10.242Z,22.50
2022-08-25T06:48:57.665Z,22.60
2022-08-25T06:51:44.097Z,22.70
2022-08-25T06:54:30.499Z,22.70
2022-08-25T06:57:16.927Z,22.80
2022-08-25T07:00:07.029Z,22.90
2022-08-25T07:02:53.715Z,23.00
2022-08-25T07:05:43.715Z,23.10
2022-08-25T07:08:30.971Z,23.10
2022-08-25T07:11:18.368Z,23.20
2022-08-25T07:14:06.504Z,23.30
2022-08-25T07:16:54.589Z,23.40
2022-08-25T07:19:41.228Z,23.50
2022-08-25T07:22:27.698Z,23.50
2022-08-25T07:25:14.185Z,23.60
2022-08-25T07:28:02.693Z,23.70
2022-08-25T07:30:51.857Z,23.90
2022-08-25T07:34:00.389Z,23.90
2022-08-25T07:36:46.007Z,24.00
2022-08-25T07:39:33.761Z,24.10
2022-08-25T07:42:20.412Z,24.20
2022-08-25T07:45:10.228Z,24.30
2022-08-25T07:47:57.035Z,24.40
2022-08-25T07:50:46.270Z,24.50
2022-08-25T07:53:32.749Z,24.70
2022-08-25T07:56:20.958Z,24.60
2022-08-25T07:59:08.953Z,24.70
2022-08-25T08:01:59.141Z,25.00
2022-08-25T08:04:46.319Z,25.00
2022-08-25T08:07:43.379Z,25.20
2022-08-25T08:10:53.936Z,25.30
2022-08-25T08:13:41.268Z,25.40
2022-08-25T08:16:30.719Z,25.50
2022-08-25T08:19:17.699Z,25.60
2022-08-25T08:22:11.506Z,25.80
2022-08-25T08:24:59.463Z,25.80
2022-08-25T08:27:46.982Z,25.90
2022-08-25T08:30:33.843Z,26.10
2022-08-25T08:33:23.845Z,26.20
2022-08-25T08:36:13.181Z,26.30
2022-08-25T08:39:00.380Z,26.40
2022-08-25T08:42:19.930Z,26.50
2022-08-25T08:45:35.512Z,26.60
2022-08-25T08:48:50.599Z,26.50
2022-08-25T08:51:47.748Z,26.80
2022-08-25T08:54:39.223Z,26.90
2022-08-25T08:57:31.364Z,27.00
2022-08-25T09:00:19.003Z,27.10
2022-08-25T09:03:08.267Z,27.20
2022-08-25T09:06:00.382Z,27.20
2022-08-25T09:08:47.404Z,27.50
2022-08-25T09:11:58.399Z,27.50
2022-08-25T09:15:01.544Z,27.50
2022-08-25T09:18:12.082Z,27.60
2022-08-25T09:21:08.777Z,27.70
2022-08-25T09:24:11.649Z,27.80
2022-08-25T09:27:11.961Z,27.80
2022-08-25T09:30:05.776Z,28.00
2022-08-25T09:33:02.079Z,28.20
2022-08-25T09:35:50.633Z,28.40
2022-08-25T09:38:40.993Z,28.60
2022-08-25T09:41:43.830Z,28.60
2022-08-25T09:44:33.590Z,28.70
2022-08-25T09:47:27.994Z,28.60
2022-08-25T09:50:20.609Z,28.70
2022-08-25T09:53:17.073Z,28.90
2022-08-25T09:56:07.629Z,29.10
2022-08-25T09:58:55.840Z,29.10
2022-08-25T10:01:49.890Z,29.00
2022-08-25T10:04:40.121Z,28.80
2022-08-25T10:07:30.225Z,29.10
2022-08-25T10:10:19.805Z,29.20
2022-08-25T10:13:14.834Z,29.40
2022-08-25T10:16:17.714Z,29.60
2022-08-25T10:19:12.164Z,29.60
2022-08-25T10:22:11.229Z,29.50
2022-08-25T10:24:57.717Z,29.60
2022-08-25T10:27:52.737Z,29.50
2022-08-25T10:30:54.885Z,29.20
2022-08-25T10:33:52.824Z,29.30
2022-08-25T10:36:50.787Z,29.70
2022-08-25T10:39:42.525Z,29.70
2022-08-25T10:42:36.061Z,29.70
2022-08-25T10:45:44.581Z,29.90
2022-08-25T10:49:00.338Z,30.00
2022-08-25T10:51:55.273Z,30.30
2022-08-25T10:54:50.854Z,30.00
2022-08-25T10:57:44.872Z,30.00
2022-08-25T11:00:38.607Z,30.40
2022-08-25T11:03:45.363Z,30.50
2022-08-25T11:06:40.518Z,30.70
2022-08-25T11:09:36.443Z,30.80
2022-08-25T11:12:32.008Z,31.10
2022-08-25T11:15:24.163Z,31.10
2022-08-25T11:18:14.963Z,31.30
2022-08-25T11:21:08.624Z,31.30
2022-08-25T11:24:01.558Z,31.50
2022-08-25T11:26:55.694Z,31.60
2022-08-25T11:29:50.202Z,31.60
2022-08-25T11:32:38.960Z,31.90
2022-08-25T11:35:32.113Z,31.90
2022-08-25T11:38:35.314Z,31.80
2022-08-25T11:41:28.181Z,31.70
2022-08-25T11:44:50.128Z,31.80
2022-08-25T11:47:58.917Z,32.00
2022-08-25T11:51:04.857Z,32.10
2022-08-25T11:54:17.066Z,31.90
2022-08-25T11:57:07.073Z,31.60
2022-08-25T12:00:09.478Z,31.90
2022-08-25T12:03:01.283Z,32.00
2022-08-25T12:06:13.338Z,32.00
2022-08-25T12:09:21.143Z,32.10
2022-08-25T12:12:32.924Z,32.30
2022-08-25T12:15:23.638Z,32.50
2022-08-25T12:18:15.781Z,32.30
2022-08-25T12:21:31.598Z,32.40
2022-08-25T12:24:22.003Z,32.50
2022-08-25T12:27:18.688Z,32.60
2022-08-25T12:30:18.405Z,32.80
2022-08-25T12:33:13.554Z,32.60
2022-08-25T12:36:03.622Z,32.50
2022-08-25T12:38:52.904Z,32.80
2022-08-25T12:41:55.808Z,32.60
2022-08-25T12:44:48.257Z,32.00
2022-08-25T12:47:36.393Z,31.70
2022-08-25T12:50:37.705Z,31.60
2022-08-25T12:53:34.953Z,31.50
2022-08-25T12:56:29.465Z,31.60
2022-08-25T12:59:18.897Z,31.10
2022-08-25T13:02:34.563Z,31.30
2022-08-25T13:06:08.357Z,31.10
2022-08-25T13:09:37.588Z,31.30
2022-08-25T13:12:31.649Z,31.50
2022-08-25T13:15:35.142Z,32.00
2022-08-25T13:18:26.546Z,31.70
2022-08-25T13:21:17.849Z,31.70
2022-08-25T13:24:08.290Z,31.70
2022-08-25T13:26:58.125Z,31.80
2022-08-25T13:29:52.395Z,32.10
2022-08-25T13:32:39.875Z,32.60
2022-08-25T13:35:32.534Z,32.40
2022-08-25T13:38:19.627Z,32.40
2022-08-25T13:41:09.344Z,32.00
2022-08-25T13:44:00.832Z,32.10
2022-08-25T13:47:05.557Z,32.20
2022-08-25T13:49:56.576Z,32.30
2022-08-25T13:52:50.496Z,32.70
2022-08-25T13:55:51.149Z,32.80
2022-08-25T13:58:46.382Z,32.70
2022-08-25T14:01:47.483Z,32.90
2022-08-25T14:04:50.544Z,33.20
2022-08-25T14:07:42.745Z,33.30
2022-08-25T14:10:38.625Z,33.30
2022-08-25T14:13:33.009Z,33.30
2022-08-25T14:16:22.358Z,33.30
2022-08-25T14:19:20.289Z,33.50
2022-08-25T14:22:06.918Z,33.40
2022-08-25T14:24:54.741Z,33.50
2022-08-25T14:28:03.601Z,33.60
2022-08-25T14:30:54.196Z,33.80
2022-08-25T14:33:50.002Z,33.50
2022-08-25T14:36:38.321Z,33.60
2022-08-25T14:39:25.502Z,33.30
2022-08-25T14:42:12.656Z,32.70
2022-08-25T14:44:59.105Z,32.50
2022-08-25T14:47:49.689Z,32.60
2022-08-25T14:50:37.352Z,32.80
2022-08-25T14:53:25.898Z,33.00
2022-08-25T14:56:14.202Z,33.10
2022-08-25T14:59:01.453Z,33.30
2022-08-25T15:01:50.121Z,33.40
2022-08-25T15:04:38.226Z,33.00
2022-08-25T15:07:48.131Z,32.80
2022-08-25T15:10:36.152Z,32.40
2022-08-25T15:13:23.983Z,32.20
2022-08-25T15:16:11.495Z,32.00
2022-08-25T15:18:58.388Z,32.10
2022-08-25T15:21:46.869Z,32.10
2022-08-25T15:24:37.803Z,32.40
2022-08-25T15:27:30.872Z,32.50
2022-08-25T15:30:18.480Z,32.60
2022-08-25T15:33:05.094Z,32.80
2022-08-25T15:35:51.592Z,32.90
2022-08-25T15:38:38.951Z,32.50
2022-08-25T15:41:27.763Z,32.30
2022-08-25T15:44:16.142Z,32.30
2022-08-25T15:47:02.847Z,32.00
2022-08-25T15:49:49.919Z,32.20
2022-08-25T15:52:46.366Z,33.30
2022-08-25T15:55:34.499Z,33.00
2022-08-25T15:58:21.857Z,32.90
2022-08-25T16:01:13.442Z,33.20
2022-08-25T16:04:00.360Z,33.40
2022-08-25T16:06:46.984Z,33.40
2022-08-25T16:09:35.170Z,33.40
2022-08-25T16:12:21.562Z,33.50
2022-08-25T16:15:09.254Z,33.40
2022-08-25T16:18:01.731Z,33.30
2022-08-25T16:20:52.052Z,33.00
2022-08-25T16:23:39.496Z,33.20
2022-08-25T16:26:26.563Z,33.30
2022-08-25T16:29:14.529Z,33.00
2022-08-25T16:32:02.321Z,32.80
2022-08-25T16:34:51.292Z,32.70
2022-08-25T16:37:37.759Z,32.40
2022-08-25T16:40:26.446Z,32.30
2022-08-25T16:43:13.407Z,32.20
2022-08-25T16:46:00.468Z,32.00
2022-08-25T16:48:48.715Z,32.20
2022-08-25T16:51:38.027Z,32.30
2022-08-25T16:54:42.112Z,32.50
2022-08-25T16:57:28.763Z,32.40
2022-08-25T17:00:18.114Z,32.10
2022-08-25T17:03:07.425Z,32.20
2022-08-25T17:05:54.085Z,32.20
2022-08-25T17:08:42.060Z,32.00
2022-08-25T17:11:31.992Z,32.00
2022-08-25T17:14:20.290Z,31.90
2022-08-25T17:17:07.067Z,32.00
2022-08-25T17:19:54.865Z,31.80
2022-08-25T17:22:43.346Z,32.00
2022-08-25T17:25:34.529Z,32.00
2022-08-25T17:28:20.848Z,31.90
2022-08-25T17:31:08.260Z,31.90
2022-08-25T17:33:55.136Z,32.00
2022-08-25T17:36:42.517Z,31.80
2022-08-25T17:39:29.463Z,31.80
2022-08-25T17:42:17.207Z,31.70
2022-08-25T17:45:05.639Z,31.50
2022-08-25T17:47:52.720Z,31.20
2022-08-25T17:50:40.732Z,31.10
2022-08-25T17:53:28.085Z,30.90
2022-08-25T17:56:17.729Z,30.70
2022-08-25T17:59:06.948Z,30.70
2022-08-25T18:01:55.554Z,30.60
2022-08-25T18:04:42.276Z,30.60
2022-08-25T18:07:30.344Z,30.40
2022-08-25T18:10:17.697Z,30.40
2022-08-25T18:13:04.953Z,30.20
2022-08-25T18:15:53.220Z,30.10
2022-08-25T18:18:42.175Z,30.10
2022-08-25T18:21:30.416Z,30.10
2022-08-25T18:24:17.100Z,29.90
2022-08-25T18:27:04.920Z,29.80
2022-08-25T18:29:53.260Z,29.80
2022-08-25T18:32:42.010Z,29.80
2022-08-25T18:35:28.828Z,29.70
2022-08-25T18:38:33.155Z,29.70
2022-08-25T18:41:20.937Z,29.70
2022-08-25T18:44:07.603Z,29.50
2022-08-25T18:46:55.052Z,29.40
2022-08-25T18:49:43.123Z,29.40
2022-08-25T18:52:29.879Z,29.30
2022-08-25T18:55:18.046Z,29.30
2022-08-25T18:58:06.800Z,29.20
2022-08-25T19:00:53.515Z,29.10
2022-08-25T19:03:40.400Z,29.00
2022-08-25T19:06:28.628Z,28.90
2022-08-25T19:09:16.672Z,28.90
2022-08-25T19:12:03.884Z,28.90
2022-08-25T19:14:50.634Z,28.90
2022-08-25T19:17:37.897Z,28.90
2022-08-25T19:20:25.745Z,28.80
2022-08-25T19:23:13.579Z,28.70
2022-08-25T19:26:00.677Z,28.70
2022-08-25T19:28:48.833Z,28.70
2022-08-25T19:31:35.802Z,28.60
2022-08-25T19:34:28.339Z,28.50
2022-08-25T19:37:18.139Z,28.50
2022-08-25T19:40:09.036Z,28.40
2022-08-25T19:42:58.075Z,28.40
2022-08-25T19:45:44.942Z,28.30
2022-08-25T19:48:33.474Z,28.40
2022-08-25T19:51:21.790Z,28.50
2022-08-25T19:54:10.595Z,28.30
2022-08-25T19:56:58.473Z,28.30
2022-08-25T19:59:47.391Z,28.20
2022-08-25T20:02:35.995Z,28.20
2022-08-25T20:05:24.193Z,28.10
2022-08-25T20:08:10.646Z,28.00
2022-08-25T20:10:58.310Z,28.00
2022-08-25T20:13:46.329Z,27.80
2022-08-25T20:16:36.167Z,27.90
2022-08-25T20:19:23.104Z,27.90
2022-08-25T20:22:11.266Z,27.80
2022-08-25T20:25:13.583Z,27.80
2022-08-25T20:28:01.601Z,27.70
2022-08-25T20:30:49.654Z,27.70
2022-08-25T20:33:36.265Z,27.70
2022-08-25T20:36:22.649Z,27.50
2022-08-25T20:39:10.051Z,27.40
2022-08-25T20:41:56.636Z,27.40
2022-08-25T20:44:43.573Z,27.40
2022-08-25T20:47:31.615Z,27.30
2022-08-25T20:50:18.763Z,27.20
2022-08-25T20:53:05.763Z,27.30
2022-08-25T20:55:57.588Z,27.30
2022-08-25T20:58:44.740Z,27.30
2022-08-25T21:01:39.713Z,27.20
2022-08-25T21:04:29.313Z,27.10
2022-08-25T21:07:16.311Z,27.00
2022-08-25T21:10:02.601Z,26.90
2022-08-25T21:12:49.428Z,27.00
2022-08-25T21:15:42.049Z,27.00
2022-08-25T21:18:31.543Z,26.80
2022-08-25T21:21:20.006Z,26.70
2022-08-25T21:24:09.829Z,26.80
2022-08-25T21:26:59.361Z,26.80
2022-08-25T21:29:54.997Z,26.70
2022-08-25T21:32:53.582Z,26.60
2022-08-25T21:35:41.068Z,26.70
2022-08-25T21:38:30.617Z,26.70
2022-08-25T21:41:19.614Z,26.60
2022-08-25T21:44:07.352Z,26.60
2022-08-25T21:46:54.726Z,26.50
2022-08-25T21:49:41.724Z,26.50
2022-08-25T21:52:28.092Z,26.50
2022-08-25T21:55:18.640Z,26.50
2022-08-25T21:58:05.492Z,26.50
2022-08-25T22:00:51.805Z,26.40
2022-08-25T22:03:41.057Z,26.30
2022-08-25T22:06:27.592Z,26.50
2022-08-25T22:09:17.316Z,26.30
2022-08-25T22:12:07.600Z,26.40
2022-08-25T22:14:54.465Z,26.30
2022-08-25T22:17:41.452Z,26.40
2022-08-25T22:20:28.824Z,26.30
2022-08-25T22:23:20.374Z,26.30
2022-08-25T22:26:07.544Z,26.30
2022-08-25T22:28:55.596Z,26.20
2022-08-25T22:31:42.650Z,26.20
2022-08-25T22:34:31.900Z,26.20
2022-08-25T22:37:18.685Z,26.10
2022-08-25T22:40:06.218Z,26.10
2022-08-25T22:42:53.315Z,26.10
2022-08-25T22:45:41.218Z,26.10
2022-08-25T22:48:27.719Z,26.00
2022-08-25T22:51:16.459Z,25.90
2022-08-25T22:54:03.171Z,25.90
2022-08-25T22:56:51.553Z,26.00
2022-08-25T22:59:38.876Z,26.00
2022-08-25T23:02:26.710Z,25.90
2022-08-25T23:05:17.027Z,26.00
2022-08-25T23:08:04.145Z,25.80
2022-08-25T23:10:54.145Z,25.80
2022-08-25T23:13:41.931Z,25.80
2022-08-25T23:16:29.675Z,25.80
2022-08-25T23:19:17.748Z,25.70
2022-08-25T23:22:09.471Z,25.70
2022-08-25T23:24:57.068Z,25.70
2022-08-25T23:27:43.971Z,25.70
2022-08-25T23:30:30.350Z,25.70
2022-08-25T23:33:18.852Z,25.60
2022-08-25T23:36:10.978Z,25.60
2022-08-25T23:38:58.069Z,25.40
2022-08-25T23:41:44.638Z,25.50
2022-08-25T23:44:31.017Z,25.50
2022-08-25T23:47:18.401Z,25.40
2022-08-25T23:50:05.147Z,25.40
2022-08-25T23:52:52.956Z,25.40
2022-08-25T23:55:52.866Z,25.30
2022-08-25T23:58:40.600Z,25.30
